Nimba Airport

Jump to: basic info | weather | comments

Related pages: nearby airports | nearby navaids | notams | map

Basic information (top)

Codes: NIA GLNA
Location: lon 7.500000, lat -8.600000, elev 1,632 ft / 497 m msl
Status: small_airport
Scheduled airline service: no
Links: Wikipedia Mobile

Weather (top)

Current conditions for Man Airport 62nm (115km) ESE (rec'd 2013/11/21 04:00Z):

DIMN 210400Z NOL

Airport forecast for Roberts International Airport 130nm (240km) SW (rec'd 2014/04/17 18:51Z):

TAF TAF GLRB 171600Z 1718/1824 22012KT 8000 TSRA SCT005 BKN018 FEW027CB 
      TEMPO 1719/1724 22008KT 7000 FM 180200 02006KT 9999 SCT014 
      BECMG 1807/1809 20010KT 9999

Latest comments (top)

No comments yet for Nimba Airport

More... (top)

See also NOTAMs and nearby airports and navaids, or visit the Nimba Airport page at the main OurAirports website..